Terminal Aerodrome Forecast
Issued by NWS

Home | Current Version | Previous Version | Text Only | Print | Product List | Glossary On
Versions: 1 2 3 4 5 6 7 8 9 10 11 12 13
000
FTUS44 KEPZ 310500
TAFDMN
TAF
KDMN 310531Z 3106/0106 30011KT P6SM VCTS SCT080CB SCT120 SCT250
      TEMPO 3106/3108 -TSRA BKN080CB BKN120 OVC250
     FM311200 08010KT P6SM FEW070 BKN120 BKN250
     FM311800 14011KT P6SM SCT070 SCT120 BKN250
     FM010300 10008KT P6SM SCT070 SCT120 BKN250=

USA.gov is the U.S. government's official web portal to all federal, state and local government web resources and services.